createdAt,value
2024-01-17T00:02:55.304Z,1.76
2024-01-17T00:06:12.865Z,1.67
2024-01-17T00:09:24.261Z,1.61
2024-01-17T00:12:29.868Z,1.51
2024-01-17T00:15:45.238Z,1.43
2024-01-17T00:19:09.174Z,1.44
2024-01-17T00:22:33.022Z,1.40
2024-01-17T00:25:56.844Z,1.44
2024-01-17T00:29:20.806Z,1.49
2024-01-17T00:32:44.417Z,1.52
2024-01-17T00:36:08.138Z,1.38
2024-01-17T00:39:31.810Z,1.49
2024-01-17T00:42:55.283Z,1.43
2024-01-17T00:46:18.754Z,1.41
2024-01-17T00:49:42.500Z,1.29
2024-01-17T00:53:06.194Z,1.25
2024-01-17T00:56:30.043Z,1.18
2024-01-17T00:59:53.664Z,1.28
2024-01-17T01:03:17.257Z,1.14
2024-01-17T01:06:40.706Z,1.08
2024-01-17T01:10:04.284Z,1.23
2024-01-17T01:13:27.739Z,1.29
2024-01-17T01:16:51.234Z,1.29
2024-01-17T01:20:15.013Z,1.30
2024-01-17T01:23:38.773Z,1.19
2024-01-17T01:27:02.323Z,1.06
2024-01-17T01:30:26.081Z,0.95
2024-01-17T01:33:50.342Z,0.82
2024-01-17T01:37:13.963Z,0.75
2024-01-17T01:40:38.251Z,0.66
2024-01-17T01:44:01.941Z,0.52
2024-01-17T01:47:25.582Z,0.34
2024-01-17T01:50:49.363Z,0.16
2024-01-17T01:54:13.029Z,0.03
2024-01-17T01:57:36.793Z,-0.04
2024-01-17T02:01:00.463Z,-0.08
2024-01-17T02:04:23.800Z,-0.09
2024-01-17T02:07:48.298Z,-0.06
2024-01-17T02:11:11.918Z,-0.08
2024-01-17T02:14:35.530Z,-0.15
2024-01-17T02:17:59.386Z,-0.26
2024-01-17T02:21:23.204Z,-0.34
2024-01-17T02:24:46.866Z,-0.45
2024-01-17T02:28:10.449Z,-0.52
2024-01-17T02:31:34.224Z,-0.52
2024-01-17T02:34:57.653Z,-0.54
2024-01-17T02:38:21.246Z,-0.62
2024-01-17T02:41:44.750Z,-0.73
2024-01-17T02:45:08.609Z,-0.68
2024-01-17T02:48:32.557Z,-0.66
2024-01-17T02:51:56.262Z,-0.62
2024-01-17T02:55:19.896Z,-0.58
2024-01-17T02:58:43.529Z,-0.53
2024-01-17T03:02:07.166Z,-0.47
2024-01-17T03:05:30.781Z,-0.43
2024-01-17T03:08:54.565Z,-0.40
2024-01-17T03:12:18.574Z,-0.43
2024-01-17T03:15:42.315Z,-0.42
2024-01-17T03:19:06.128Z,-0.49
2024-01-17T03:22:29.890Z,-0.49
2024-01-17T03:25:53.637Z,-0.48
2024-01-17T03:29:16.893Z,-0.50
2024-01-17T03:32:40.700Z,-0.52
2024-01-17T03:36:04.483Z,-0.47
2024-01-17T03:39:28.273Z,-0.45
2024-01-17T03:42:52.066Z,-0.44
2024-01-17T03:46:15.758Z,-0.43
2024-01-17T03:49:39.556Z,-0.38
2024-01-17T03:53:03.321Z,-0.37
2024-01-17T03:56:27.102Z,-0.38
2024-01-17T03:59:50.703Z,-0.44
2024-01-17T04:03:14.566Z,-0.49
2024-01-17T04:06:37.875Z,-0.51
2024-01-17T04:10:01.729Z,-0.49
2024-01-17T04:13:25.363Z,-0.58
2024-01-17T04:16:48.708Z,-0.47
2024-01-17T04:20:12.382Z,-0.49
2024-01-17T04:23:36.856Z,-0.53
2024-01-17T04:27:01.056Z,-0.52
2024-01-17T04:30:24.742Z,-0.53
2024-01-17T04:33:48.507Z,-0.58
2024-01-17T04:37:12.029Z,-0.55
2024-01-17T04:40:35.500Z,-0.50
2024-01-17T04:43:59.198Z,-0.52
2024-01-17T04:47:22.842Z,-0.57
2024-01-17T04:50:46.584Z,-0.55
2024-01-17T04:54:10.482Z,-0.54
2024-01-17T04:57:33.805Z,-0.54
2024-01-17T05:00:57.439Z,-0.59
2024-01-17T05:04:21.211Z,-0.81
2024-01-17T05:07:44.991Z,-0.94
2024-01-17T05:11:08.671Z,-0.95
2024-01-17T05:14:32.276Z,-0.98
2024-01-17T05:17:56.244Z,-0.95
2024-01-17T05:21:20.210Z,-1.01
2024-01-17T05:24:43.698Z,-1.03
2024-01-17T05:28:07.553Z,-1.00
2024-01-17T05:31:31.366Z,-1.01
2024-01-17T05:34:54.919Z,-1.06
2024-01-17T05:38:18.184Z,-1.16
2024-01-17T05:41:41.864Z,-1.32
2024-01-17T05:45:05.861Z,-1.38
2024-01-17T05:48:29.664Z,-1.55
2024-01-17T05:51:53.550Z,-1.66
2024-01-17T05:55:16.965Z,-1.73
2024-01-17T05:58:40.624Z,-1.74
2024-01-17T06:02:08.697Z,-1.82
2024-01-17T06:05:32.332Z,-1.78
2024-01-17T06:08:55.914Z,-1.74
2024-01-17T06:12:19.676Z,-1.70
2024-01-17T06:15:43.336Z,-1.65
2024-01-17T06:19:07.890Z,-1.62
2024-01-17T06:22:32.804Z,-1.66
2024-01-17T06:25:56.558Z,-1.51
2024-01-17T06:29:22.008Z,-1.47
2024-01-17T06:32:46.056Z,-1.41
2024-01-17T06:36:13.176Z,-1.43
2024-01-17T06:39:36.541Z,-1.33
2024-01-17T06:43:01.848Z,-1.19
2024-01-17T06:46:25.610Z,-1.07
2024-01-17T06:49:52.205Z,-0.97
2024-01-17T06:53:21.271Z,-0.75
2024-01-17T06:56:47.426Z,-0.60
2024-01-17T07:00:20.830Z,-0.42
2024-01-17T07:03:55.701Z,-0.19
2024-01-17T07:07:19.821Z,0.07
2024-01-17T07:10:45.312Z,0.31
2024-01-17T07:14:15.927Z,0.59
2024-01-17T07:17:42.480Z,0.83
2024-01-17T07:21:11.813Z,1.00
2024-01-17T07:24:47.860Z,1.18
2024-01-17T07:28:13.396Z,1.34
2024-01-17T07:31:52.843Z,1.53
2024-01-17T07:35:23.708Z,1.74
2024-01-17T07:39:02.972Z,1.89
2024-01-17T07:42:32.473Z,2.02
2024-01-17T07:46:03.192Z,2.19
2024-01-17T07:49:40.960Z,2.38
2024-01-17T07:53:12.969Z,2.55
2024-01-17T07:56:50.888Z,2.68
2024-01-17T08:00:16.763Z,2.77
2024-01-17T08:03:45.811Z,2.87
2024-01-17T08:07:14.822Z,2.94
2024-01-17T08:10:48.796Z,3.07
2024-01-17T08:14:19.984Z,3.09
2024-01-17T08:17:58.970Z,3.09
2024-01-17T08:21:28.878Z,3.14
2024-01-17T08:25:06.934Z,3.21
2024-01-17T08:28:39.264Z,3.14
2024-01-17T08:32:15.980Z,3.27
2024-01-17T08:35:45.984Z,3.46
2024-01-17T08:39:24.984Z,3.55
2024-01-17T08:42:58.048Z,3.73
2024-01-17T08:46:36.145Z,3.88
2024-01-17T08:50:06.885Z,3.83
2024-01-17T08:53:46.093Z,3.96
2024-01-17T08:57:17.170Z,4.16
2024-01-17T09:01:02.012Z,4.25
2024-01-17T09:04:27.260Z,4.28
2024-01-17T09:08:12.144Z,4.42
2024-01-17T09:11:43.027Z,4.48
2024-01-17T09:15:21.002Z,4.54
2024-01-17T09:18:52.256Z,4.64
2024-01-17T09:22:31.086Z,4.59
2024-01-17T09:25:56.410Z,4.60
2024-01-17T09:29:29.958Z,4.60
2024-01-17T09:33:02.275Z,4.62
2024-01-17T09:36:42.174Z,4.70
2024-01-17T09:40:13.082Z,4.78
2024-01-17T09:43:52.022Z,4.90
2024-01-17T09:47:18.727Z,4.93
2024-01-17T09:50:58.557Z,4.95
2024-01-17T09:54:24.382Z,4.93
2024-01-17T09:58:02.113Z,5.04
2024-01-17T10:01:29.322Z,5.15
2024-01-17T10:05:12.095Z,5.14
2024-01-17T10:08:43.064Z,5.10
2024-01-17T10:12:18.044Z,5.11
2024-01-17T10:15:43.185Z,5.15
2024-01-17T10:19:17.705Z,5.20
2024-01-17T10:22:49.231Z,5.18
2024-01-17T10:26:17.960Z,5.08
2024-01-17T10:29:49.216Z,5.23
2024-01-17T10:33:20.257Z,5.31
2024-01-17T10:36:52.173Z,5.36
2024-01-17T10:40:32.136Z,5.31
2024-01-17T10:43:58.589Z,5.24
2024-01-17T10:47:37.202Z,5.38
2024-01-17T10:51:02.482Z,5.43
2024-01-17T10:54:46.267Z,5.16
2024-01-17T10:58:12.048Z,5.20
2024-01-17T11:01:46.168Z,5.40
2024-01-17T11:05:16.277Z,5.41
2024-01-17T11:08:57.261Z,5.44
2024-01-17T11:12:28.535Z,5.39
2024-01-17T11:16:07.173Z,5.24
2024-01-17T11:19:38.327Z,5.19
2024-01-17T11:23:17.179Z,5.24
2024-01-17T11:26:48.374Z,5.35
2024-01-17T11:30:27.319Z,5.21
2024-01-17T11:33:58.498Z,5.18
2024-01-17T11:37:39.228Z,5.06
2024-01-17T11:41:11.261Z,4.99
2024-01-17T11:44:44.244Z,4.90
2024-01-17T11:48:15.307Z,4.80
2024-01-17T11:51:49.281Z,4.79
2024-01-17T11:55:16.266Z,4.76
2024-01-17T11:58:41.361Z,4.76
2024-01-17T12:02:08.244Z,4.64
2024-01-17T12:05:45.283Z,4.51
2024-01-17T12:09:16.409Z,4.33
2024-01-17T12:12:55.318Z,4.34
2024-01-17T12:16:20.561Z,4.30
2024-01-17T12:19:57.406Z,4.36
2024-01-17T12:23:18.618Z,4.31
2024-01-17T12:27:02.367Z,4.28
2024-01-17T12:30:33.335Z,4.15
2024-01-17T12:34:08.243Z,4.06
2024-01-17T12:37:33.718Z,4.01
2024-01-17T12:41:18.468Z,3.86
2024-01-17T12:44:41.947Z,3.78
2024-01-17T12:48:20.676Z,3.67
2024-01-17T12:51:50.452Z,3.53
2024-01-17T12:55:34.398Z,3.50
2024-01-17T12:58:57.585Z,3.40
2024-01-17T13:02:36.448Z,3.39
2024-01-17T13:06:03.163Z,3.30
2024-01-17T13:09:41.363Z,3.29
2024-01-17T13:13:00.879Z,3.21
2024-01-17T13:16:37.433Z,3.12
2024-01-17T13:20:08.409Z,3.08
2024-01-17T13:23:46.492Z,2.96
2024-01-17T13:27:10.292Z,2.89
2024-01-17T13:30:44.391Z,2.88
2024-01-17T13:34:06.280Z,2.82
2024-01-17T13:37:45.422Z,2.83
2024-01-17T13:41:14.533Z,2.78
2024-01-17T13:44:41.216Z,2.78
2024-01-17T13:48:11.690Z,2.74
2024-01-17T13:51:56.429Z,2.64
2024-01-17T13:55:34.714Z,2.65
2024-01-17T13:59:07.499Z,2.58
2024-01-17T14:02:44.446Z,2.44
2024-01-17T14:06:17.825Z,2.39
2024-01-17T14:09:52.489Z,2.47
2024-01-17T14:13:00.870Z,2.40
2024-01-17T14:15:34.958Z,2.24
2024-01-17T14:18:09.388Z,2.15
2024-01-17T14:20:37.093Z,1.93
2024-01-17T14:23:05.293Z,1.78
2024-01-17T14:25:33.425Z,1.65
2024-01-17T14:28:01.868Z,1.56
2024-01-17T14:30:30.865Z,1.44
2024-01-17T14:33:00.214Z,1.28
2024-01-17T14:35:30.120Z,1.13
2024-01-17T14:37:58.351Z,1.07
2024-01-17T14:40:26.049Z,1.04
2024-01-17T14:42:59.829Z,0.94
2024-01-17T14:45:35.397Z,0.80
2024-01-17T14:48:06.523Z,0.70
2024-01-17T14:50:38.895Z,0.61
2024-01-17T14:53:13.486Z,0.50
2024-01-17T14:55:44.205Z,0.45
2024-01-17T14:58:16.866Z,0.35
2024-01-17T15:00:49.267Z,0.29
2024-01-17T15:03:23.093Z,0.27
2024-01-17T15:05:56.991Z,0.23
2024-01-17T15:08:33.041Z,0.17
2024-01-17T15:11:06.841Z,0.19
2024-01-17T15:13:40.547Z,0.22
2024-01-17T15:16:23.768Z,0.09
2024-01-17T15:18:57.530Z,0.03
2024-01-17T15:21:31.608Z,0.02
2024-01-17T15:24:09.833Z,-0.05
2024-01-17T15:26:44.963Z,-0.00
2024-01-17T15:29:19.538Z,-0.05
2024-01-17T15:31:53.181Z,-0.06
2024-01-17T15:34:26.999Z,-0.14
2024-01-17T15:37:00.845Z,-0.16
2024-01-17T15:39:34.579Z,-0.24
2024-01-17T15:42:08.329Z,-0.30
2024-01-17T15:44:42.260Z,-0.29
2024-01-17T15:47:17.426Z,-0.30
2024-01-17T15:49:51.275Z,-0.28
2024-01-17T15:52:25.129Z,-0.25
2024-01-17T15:54:58.776Z,-0.27
2024-01-17T15:57:32.622Z,-0.29
2024-01-17T16:00:10.788Z,-0.34
2024-01-17T16:02:47.455Z,-0.44
2024-01-17T16:05:21.327Z,-0.49
2024-01-17T16:07:55.081Z,-0.57
2024-01-17T16:10:28.902Z,-0.73
2024-01-17T16:13:02.628Z,-0.67
2024-01-17T16:15:36.634Z,-0.66
2024-01-17T16:18:11.600Z,-0.72
2024-01-17T16:20:45.583Z,-0.72
2024-01-17T16:23:19.408Z,-0.79
2024-01-17T16:25:53.193Z,-0.80
2024-01-17T16:28:26.927Z,-0.80
2024-01-17T16:31:02.826Z,-0.76
2024-01-17T16:33:36.808Z,-0.76
2024-01-17T16:36:10.765Z,-0.77
2024-01-17T16:38:46.199Z,-0.93
2024-01-17T16:41:23.403Z,-0.97
2024-01-17T16:43:57.154Z,-1.01
2024-01-17T16:46:30.892Z,-1.05
2024-01-17T16:49:04.986Z,-1.09
2024-01-17T16:51:38.911Z,-1.12
2024-01-17T16:54:13.340Z,-1.09
2024-01-17T16:56:47.125Z,-1.08
2024-01-17T16:59:20.858Z,-1.04
2024-01-17T17:01:54.771Z,-1.01
2024-01-17T17:04:28.901Z,-1.02
2024-01-17T17:07:02.710Z,-1.15
2024-01-17T17:09:36.399Z,-1.21
2024-01-17T17:12:10.194Z,-1.22
2024-01-17T17:14:44.796Z,-1.21
2024-01-17T17:17:18.817Z,-1.26
2024-01-17T17:19:53.193Z,-1.33
2024-01-17T17:22:36.940Z,-1.36
2024-01-17T17:25:12.010Z,-1.40
2024-01-17T17:27:47.579Z,-1.44
2024-01-17T17:30:22.030Z,-1.41
2024-01-17T17:32:55.930Z,-1.46
2024-01-17T17:35:29.688Z,-1.45
2024-01-17T17:38:05.198Z,-1.45
2024-01-17T17:40:43.223Z,-1.49
2024-01-17T17:43:19.166Z,-1.51
2024-01-17T17:45:53.673Z,-1.56
2024-01-17T17:48:27.820Z,-1.64
2024-01-17T17:51:01.857Z,-1.73
2024-01-17T17:53:36.890Z,-1.79
2024-01-17T17:56:10.741Z,-1.89
2024-01-17T17:58:44.468Z,-2.04
2024-01-17T18:01:18.264Z,-2.04
2024-01-17T18:03:52.221Z,-2.05
2024-01-17T18:06:26.144Z,-1.98
2024-01-17T18:09:00.468Z,-1.99
2024-01-17T18:11:35.777Z,-1.96
2024-01-17T18:14:09.532Z,-1.99
2024-01-17T18:16:43.232Z,-1.96
2024-01-17T18:19:18.306Z,-1.99
2024-01-17T18:21:53.215Z,-1.96
2024-01-17T18:24:26.977Z,-1.91
2024-01-17T18:27:00.753Z,-1.89
2024-01-17T18:29:34.667Z,-1.86
2024-01-17T18:32:08.444Z,-1.81
2024-01-17T18:34:42.313Z,-1.77
2024-01-17T18:37:16.330Z,-1.77
2024-01-17T18:39:50.071Z,-1.73
2024-01-17T18:42:24.514Z,-1.76
2024-01-17T18:44:58.239Z,-1.84
2024-01-17T18:47:32.231Z,-1.99
2024-01-17T18:50:06.206Z,-1.96
2024-01-17T18:52:39.945Z,-2.11
2024-01-17T18:55:14.335Z,-2.43
2024-01-17T18:57:48.232Z,-2.47
2024-01-17T19:00:21.983Z,-2.56
2024-01-17T19:02:56.216Z,-2.59
2024-01-17T19:05:30.643Z,-2.55
2024-01-17T19:08:05.628Z,-2.57
2024-01-17T19:10:39.655Z,-2.51
2024-01-17T19:13:15.553Z,-2.52
2024-01-17T19:15:49.523Z,-2.44
2024-01-17T19:18:23.218Z,-2.44
2024-01-17T19:20:58.760Z,-2.47
2024-01-17T19:23:32.542Z,-2.44
2024-01-17T19:26:09.712Z,-2.46
2024-01-17T19:28:44.017Z,-2.54
2024-01-17T19:31:17.845Z,-2.37
2024-01-17T19:33:52.922Z,-2.16
2024-01-17T19:36:26.862Z,-2.08
2024-01-17T19:39:00.708Z,-2.07
2024-01-17T19:41:35.435Z,-2.05
2024-01-17T19:44:09.268Z,-2.12
2024-01-17T19:46:43.539Z,-2.22
2024-01-17T19:49:31.878Z,-2.13
2024-01-17T19:52:08.211Z,-2.24
2024-01-17T19:54:44.310Z,-2.36
2024-01-17T19:57:18.249Z,-2.43
2024-01-17T19:59:52.067Z,-2.44
2024-01-17T20:02:28.413Z,-2.41
2024-01-17T20:05:02.162Z,-2.46
2024-01-17T20:07:36.186Z,-2.50
2024-01-17T20:10:10.207Z,-2.51
2024-01-17T20:12:44.093Z,-2.55
2024-01-17T20:15:17.924Z,-2.68
2024-01-17T20:17:51.833Z,-2.72
2024-01-17T20:20:25.765Z,-2.75
2024-01-17T20:22:59.471Z,-2.78
2024-01-17T20:25:33.340Z,-2.88
2024-01-17T20:28:07.701Z,-2.91
2024-01-17T20:30:42.598Z,-2.93
2024-01-17T20:33:16.906Z,-2.91
2024-01-17T20:35:50.722Z,-2.88
2024-01-17T20:38:24.522Z,-2.84
2024-01-17T20:40:59.148Z,-2.78
2024-01-17T20:43:32.852Z,-2.73
2024-01-17T20:46:06.620Z,-2.71
2024-01-17T20:48:40.484Z,-2.67
2024-01-17T20:51:24.573Z,-2.62
2024-01-17T20:53:58.688Z,-2.59
2024-01-17T20:56:32.355Z,-2.61
2024-01-17T20:59:06.105Z,-2.67
2024-01-17T21:01:40.973Z,-2.68
2024-01-17T21:04:15.007Z,-2.71
2024-01-17T21:06:50.593Z,-2.71
2024-01-17T21:09:24.453Z,-2.70
2024-01-17T21:11:59.707Z,-2.68
2024-01-17T21:15:22.370Z,-2.68
2024-01-17T21:18:40.379Z,-2.65
2024-01-17T21:21:58.377Z,-2.57
2024-01-17T21:25:16.403Z,-2.41
2024-01-17T21:28:40.561Z,-2.31
2024-01-17T21:32:04.361Z,-2.20
2024-01-17T21:35:27.819Z,-2.10
2024-01-17T21:38:51.667Z,-1.91
2024-01-17T21:42:15.630Z,-1.79
2024-01-17T21:45:39.640Z,-1.71
2024-01-17T21:48:58.134Z,-1.65
2024-01-17T21:52:20.652Z,-1.59
2024-01-17T21:55:44.395Z,-1.55
2024-01-17T21:59:08.099Z,-1.47
2024-01-17T22:02:31.662Z,-1.39
2024-01-17T22:05:55.247Z,-1.35
2024-01-17T22:09:19.024Z,-1.28
2024-01-17T22:12:42.733Z,-1.19
2024-01-17T22:16:06.272Z,-1.09
2024-01-17T22:19:30.585Z,-1.07
2024-01-17T22:22:54.655Z,-0.99
2024-01-17T22:26:17.969Z,-0.95
2024-01-17T22:29:42.654Z,-0.94
2024-01-17T22:33:06.154Z,-0.91
2024-01-17T22:36:30.436Z,-0.93
2024-01-17T22:39:53.942Z,-0.83
2024-01-17T22:43:17.565Z,-0.70
2024-01-17T22:46:41.243Z,-0.62
2024-01-17T22:50:05.224Z,-0.59
2024-01-17T22:53:29.307Z,-0.53
2024-01-17T22:56:53.044Z,-0.36
2024-01-17T23:00:16.706Z,-0.30
2024-01-17T23:03:40.930Z,-0.30
2024-01-17T23:07:04.887Z,-0.24
2024-01-17T23:10:28.687Z,-0.25
2024-01-17T23:13:52.320Z,-0.24
2024-01-17T23:17:16.116Z,-0.22
2024-01-17T23:20:39.970Z,-0.21
2024-01-17T23:24:03.983Z,-0.07
2024-01-17T23:27:27.483Z,0.02
2024-01-17T23:30:52.861Z,0.08
2024-01-17T23:34:16.678Z,0.09
2024-01-17T23:37:40.263Z,0.14
2024-01-17T23:41:03.918Z,0.21
2024-01-17T23:44:27.515Z,0.29
2024-01-17T23:47:51.222Z,0.37
2024-01-17T23:51:14.805Z,0.46
2024-01-17T23:54:38.650Z,0.55
2024-01-17T23:58:02.236Z,0.73
